createdAt,value
2023-03-21T00:01:16.441Z,98120.5085437298
2023-03-21T00:04:17.335Z,98123.28455545909
2023-03-21T00:07:16.817Z,98121.91437245754
2023-03-21T00:11:16.770Z,98117.9406069661
2023-03-21T00:14:19.145Z,98118.58477002541
2023-03-21T00:17:16.683Z,98115.03289832984
2023-03-21T00:21:39.649Z,98115.30476903207
2023-03-21T00:24:16.833Z,98121.04658349883
2023-03-21T00:27:41.394Z,98114.51226172366
2023-03-21T00:31:16.297Z,98117.05788441912
2023-03-21T00:34:20.042Z,98115.30746314694
2023-03-21T00:37:17.895Z,98117.55188809514
2023-03-21T00:41:26.381Z,98106.76479561947
2023-03-21T00:44:16.638Z,98104.54803753424
2023-03-21T00:47:16.675Z,98106.13281375737
2023-03-21T00:51:20.814Z,98107.69581295663
2023-03-21T00:54:16.843Z,98107.41984827897
2023-03-21T00:57:17.699Z,98101.56950304311
2023-03-21T01:01:16.437Z,98095.47849632993
2023-03-21T01:04:17.198Z,98095.56432811916
2023-03-21T01:07:16.573Z,98096.06832166949
2023-03-21T01:11:18.461Z,98092.7202595599
2023-03-21T01:14:23.108Z,98086.51527920396
2023-03-21T01:17:16.538Z,98078.51190785412
2023-03-21T01:21:16.656Z,98071.18365857657
2023-03-21T01:24:16.855Z,98067.29791791047
2023-03-21T01:27:18.240Z,98063.0146875915
2023-03-21T01:31:16.936Z,98059.3732157526
2023-03-21T01:51:18.391Z,98060.71983699383
2023-03-21T01:54:23.824Z,98058.63227791862
2023-03-21T01:57:21.228Z,98055.93598902307
2023-03-21T02:01:16.699Z,98056.57807984653
2023-03-21T02:04:22.433Z,98050.13615684897
2023-03-21T02:07:26.510Z,98046.17528969771
2023-03-21T02:11:17.524Z,98045.21419097228
2023-03-21T02:14:26.973Z,98040.9974351192
2023-03-21T02:17:24.508Z,98036.41063113131
2023-03-21T02:21:54.940Z,98029.87330113734
2023-03-21T02:24:40.003Z,98027.45769273666
2023-03-21T02:27:20.932Z,98022.84898067525
2023-03-21T02:31:27.755Z,98024.85443304712
2023-03-21T02:41:20.180Z,98011.49761696317
2023-03-21T02:44:22.657Z,98007.87873298592
2023-03-21T02:47:23.308Z,97999.93047884479
2023-03-21T02:51:18.451Z,97996.12950055412
2023-03-21T02:54:35.079Z,97992.12646827994
2023-03-21T02:57:19.174Z,97997.06316570115
2023-03-21T03:01:16.262Z,97989.4906628518
2023-03-21T03:04:18.695Z,97985.16956021966
2023-03-21T03:07:26.972Z,97982.14237223295
2023-03-21T03:11:25.566Z,97976.40724163051
2023-03-21T03:14:49.940Z,97974.51285821624
2023-03-21T03:17:27.956Z,97971.46177005034
2023-03-21T03:21:19.792Z,97961.50301175017
2023-03-21T03:24:23.337Z,97961.71112951433
2023-03-21T03:27:24.231Z,97960.95824204538
2023-03-21T03:31:21.195Z,97963.62831567645
2023-03-21T03:34:22.233Z,97964.23307476524
2023-03-21T03:37:20.725Z,97961.6874259301
2023-03-21T03:41:25.562Z,97959.74321091673
2023-03-21T03:44:17.297Z,97962.65049084622
2023-03-21T03:47:32.358Z,97961.35712618784
2023-03-21T03:51:22.172Z,97950.6743960931
2023-03-21T03:54:22.395Z,97950.23182040863
2023-03-21T03:57:17.151Z,97956.98192230261
2023-03-21T04:01:16.521Z,97960.58048462364
2023-03-21T04:04:17.380Z,97962.45525113311
2023-03-21T04:07:16.517Z,97966.92419733875
2023-03-21T04:11:16.427Z,97970.34242757302
2023-03-21T04:14:16.736Z,97973.03339564781
2023-03-21T04:17:17.629Z,97971.43240645113
2023-03-21T04:21:17.116Z,97969.01779030751
2023-03-21T04:24:17.524Z,97972.41120744485
2023-03-21T04:27:16.993Z,97973.21268011535
2023-03-21T04:31:25.669Z,97975.54005533585
2023-03-21T04:34:16.579Z,97979.3729485195
2023-03-21T04:37:17.641Z,97981.66810781205
2023-03-21T04:41:16.145Z,97983.39402756422
2023-03-21T04:44:17.845Z,97991.23000482327
2023-03-21T04:47:17.184Z,97987.52768555545
2023-03-21T04:51:16.454Z,97995.08274658454
2023-03-21T04:54:16.816Z,97990.46545760002
2023-03-21T04:57:16.944Z,97987.69061628132
2023-03-21T05:01:20.377Z,97987.02376022593
2023-03-21T05:04:18.504Z,97991.75457801811
2023-03-21T05:07:16.375Z,97990.38545228228
2023-03-21T05:11:16.267Z,97993.78340903483
2023-03-21T05:14:19.392Z,97985.52737025761
2023-03-21T05:17:23.410Z,97991.6090740516
2023-03-21T05:21:18.969Z,97988.14729522835
2023-03-21T05:24:19.303Z,97989.29361083546
2023-03-21T05:27:35.786Z,97991.28581382231
2023-03-21T05:31:18.005Z,97994.33712289995
2023-03-21T05:34:17.124Z,97995.69094743964
2023-03-21T05:37:17.065Z,98005.53965873939
2023-03-21T05:41:19.261Z,98012.75283023948
2023-03-21T05:44:17.269Z,98013.33972452523
2023-03-21T05:47:17.866Z,98017.22453341942
2023-03-21T05:51:17.828Z,98022.01782296294
2023-03-21T05:54:17.043Z,98018.35679833949
2023-03-21T05:57:19.404Z,98023.19908536915
2023-03-21T06:01:17.180Z,98018.0539570799
2023-03-21T06:04:17.425Z,98014.7675516874
2023-03-21T06:07:17.279Z,98019.35148481152
2023-03-21T06:11:23.961Z,98022.49470345903
2023-03-21T06:14:17.383Z,98019.43818440121
2023-03-21T06:17:16.817Z,98018.765608465
2023-03-21T06:21:16.427Z,98015.90712709294
2023-03-21T06:24:18.161Z,98017.03323769233
2023-03-21T06:27:17.742Z,98011.92397679038
2023-03-21T06:31:16.552Z,98012.89724599423
2023-03-21T06:34:16.788Z,98012.089773837
2023-03-21T06:37:17.313Z,98008.61748471335
2023-03-21T06:41:17.408Z,98008.63759404764
2023-03-21T06:44:17.105Z,98009.14716378064
2023-03-21T06:47:17.135Z,98004.0657044238
2023-03-21T06:51:17.139Z,98002.63739661025
2023-03-21T06:54:18.474Z,98004.29958260253
2023-03-21T06:57:18.346Z,98004.56626964002
2023-03-21T07:01:16.065Z,97998.01690711992
2023-03-21T07:04:16.360Z,98001.29811188283
2023-03-21T07:07:16.416Z,98002.14916105616
2023-03-21T07:11:16.351Z,98001.70072770334
2023-03-21T07:14:16.653Z,98005.99079592004
2023-03-21T07:17:16.667Z,98001.25003569819
2023-03-21T07:21:16.901Z,97998.89571201015
2023-03-21T07:24:16.419Z,97995.06310658994
2023-03-21T07:27:18.586Z,97987.47241377927
2023-03-21T07:31:16.899Z,97991.56007978233
2023-03-21T07:34:18.179Z,97992.98989634769
2023-03-21T07:37:17.101Z,97993.80768257969
2023-03-21T07:44:16.923Z,97995.82907731934
2023-03-21T07:47:16.578Z,98000.65001748852
2023-03-21T07:51:16.636Z,98001.4121287683
2023-03-21T07:54:19.536Z,98001.71449509691
2023-03-21T07:57:17.751Z,97995.74147036868
2023-03-21T08:01:16.545Z,98002.90534595559
2023-03-21T08:04:16.839Z,97999.02756921087
2023-03-21T08:07:17.068Z,97999.05512646993
2023-03-21T08:11:16.372Z,97993.18478983994
2023-03-21T08:14:16.943Z,97990.34399960897
2023-03-21T08:17:16.808Z,97995.73400090905
2023-03-21T08:21:16.598Z,97995.72942366208
2023-03-21T08:24:16.892Z,97993.46205894492
2023-03-21T08:27:16.855Z,97992.09384386422
2023-03-21T08:31:16.239Z,97993.39028587364
2023-03-21T08:34:18.525Z,97991.00620385456
2023-03-21T08:37:16.658Z,97987.25969979758
2023-03-21T08:41:16.678Z,97989.71099535722
2023-03-21T08:44:17.537Z,97982.37912701417
2023-03-21T08:47:17.132Z,97982.4173740369
2023-03-21T08:51:16.130Z,97978.64516123425
2023-03-21T08:54:18.896Z,97974.71081617122
2023-03-21T08:57:16.616Z,97980.95361811231
2023-03-21T09:01:16.193Z,97976.30962962675
2023-03-21T09:04:19.167Z,97971.7835843686
2023-03-21T09:07:18.258Z,97976.20995969624
2023-03-21T09:11:16.611Z,97977.32934833797
2023-03-21T09:14:19.218Z,97978.76824187316
2023-03-21T09:17:17.084Z,97976.25297550738
2023-03-21T09:21:17.632Z,97977.78829238222
2023-03-21T09:24:18.574Z,97976.68125526758
2023-03-21T09:27:17.881Z,97978.68772549597
2023-03-21T09:31:22.191Z,97982.39118991862
2023-03-21T09:34:17.023Z,97982.6272217004
2023-03-21T09:37:17.553Z,97980.44020626179
2023-03-21T09:41:29.370Z,97989.97988446215
2023-03-21T09:44:30.800Z,97986.51953523526
2023-03-21T09:47:23.296Z,97987.89166143778
2023-03-21T09:51:17.884Z,97989.31564111114
2023-03-21T09:54:22.643Z,97993.68518149861
2023-03-21T09:57:29.872Z,97995.23372230503
2023-03-21T10:01:26.706Z,97991.3374083708
2023-03-21T10:04:19.242Z,97986.43664713748
2023-03-21T10:07:19.278Z,97983.7292316839
2023-03-21T10:11:20.100Z,97989.0494981409
2023-03-21T10:14:20.650Z,97986.89960392687
2023-03-21T10:17:26.442Z,97994.53532886833
2023-03-21T10:21:43.119Z,97990.1714938712
2023-03-21T10:24:20.653Z,97991.53445945914
2023-03-21T10:27:16.734Z,97988.17573507768
2023-03-21T10:31:20.058Z,97988.39420832746
2023-03-21T10:34:19.962Z,97986.38089604843
2023-03-21T10:37:18.227Z,97994.27078799678
2023-03-21T10:41:16.648Z,97991.53081985307
2023-03-21T10:44:18.311Z,97995.55832800246
2023-03-21T10:47:21.315Z,97986.35784333618
2023-03-21T10:51:20.417Z,97990.61728023938
2023-03-21T10:54:19.311Z,97982.40774987232
2023-03-21T10:57:21.206Z,97988.40902729421
2023-03-21T11:01:28.025Z,97990.5790589511
2023-03-21T11:04:19.714Z,97984.14425956493
2023-03-21T11:07:19.625Z,97987.12112204701
2023-03-21T11:11:25.292Z,97983.45766902943
2023-03-21T11:14:31.068Z,97986.62215337777
2023-03-21T11:17:22.155Z,97980.78592987962
2023-03-21T11:21:17.901Z,97979.04567115346
2023-03-21T11:24:18.913Z,97977.66538845525
2023-03-21T11:27:17.196Z,97971.08358176168
2023-03-21T11:31:17.912Z,97970.76263110706
2023-03-21T11:34:25.798Z,97970.52330395216
2023-03-21T11:37:23.593Z,97963.55036243545
2023-03-21T11:41:22.848Z,97959.31552120889
2023-03-21T11:44:28.146Z,97960.04755046613
2023-03-21T11:47:16.807Z,97955.27621087032
2023-03-21T11:51:25.745Z,97952.48825085838
2023-03-21T11:54:27.775Z,97950.4698215333
2023-03-21T11:57:26.568Z,97944.4820423215
2023-03-21T12:01:26.644Z,97947.2471370747
2023-03-21T12:04:34.221Z,97947.09195386567
2023-03-21T12:07:30.821Z,97943.33394582165
2023-03-21T12:11:27.433Z,97939.53239378825
2023-03-21T12:14:25.251Z,97940.20959168799
2023-03-21T12:17:29.868Z,97938.20441592456
2023-03-21T12:21:23.984Z,97929.2035009074
2023-03-21T12:24:21.566Z,97927.8004265026
2023-03-21T12:27:24.032Z,97924.26353511214
2023-03-21T12:31:25.677Z,97915.64660697573
2023-03-21T12:34:32.587Z,97909.19977214914
2023-03-21T12:37:30.813Z,97912.37819011342
2023-03-21T12:41:23.377Z,97906.59679723167
2023-03-21T12:44:20.615Z,97909.57038683424
2023-03-21T12:47:22.900Z,97904.90201874646
2023-03-21T12:51:22.090Z,97908.49794844272
2023-03-21T12:54:25.920Z,97906.37280522067
2023-03-21T12:57:20.530Z,97903.01393748772
2023-03-21T13:01:20.835Z,97901.58033703457
2023-03-21T13:05:00.840Z,97900.99234004805
2023-03-21T13:07:21.217Z,97897.90462767048
2023-03-21T13:11:20.542Z,97891.01262548383
2023-03-21T13:14:21.784Z,97890.23826347225
2023-03-21T13:17:27.281Z,97894.45949018223
2023-03-21T13:21:26.714Z,97896.27386820158
2023-03-21T13:24:24.096Z,97893.20425326609
2023-03-21T13:27:25.608Z,97892.59099397768
2023-03-21T13:31:19.378Z,97881.62922387662
2023-03-21T13:34:20.993Z,97880.13470989635
2023-03-21T13:37:18.721Z,97875.81030283547
2023-03-21T13:41:20.070Z,97866.57134865715
2023-03-21T13:44:24.251Z,97865.68091717141
2023-03-21T13:47:35.227Z,97868.36302197466
2023-03-21T13:51:37.383Z,97866.52937187294
2023-03-21T13:54:21.007Z,97861.96219553748
2023-03-21T13:57:37.799Z,97861.6354732007
2023-03-21T14:01:26.778Z,97862.2425263486
2023-03-21T14:04:20.472Z,97858.25966550312
2023-03-21T14:07:24.134Z,97855.08385959158
2023-03-21T14:11:19.217Z,97851.96363130622
2023-03-21T14:14:18.622Z,97849.79811511592
2023-03-21T14:17:23.132Z,97857.83760149663
2023-03-21T14:21:23.543Z,97852.75370221211
2023-03-21T14:24:18.988Z,97848.62352929608
2023-03-21T14:27:19.183Z,97850.40166468896
2023-03-21T14:31:20.291Z,97843.78355583649
2023-03-21T14:34:18.308Z,97843.1163648659
2023-03-21T14:37:27.434Z,97845.70654691762
2023-03-21T14:41:22.501Z,97843.23630164587
2023-03-21T14:44:21.362Z,97841.12954980168
2023-03-21T14:47:19.613Z,97840.1589354019
2023-03-21T14:51:18.001Z,97844.29512629932
2023-03-21T14:54:18.973Z,97828.82206339715
2023-03-21T14:57:21.033Z,97834.07762863365
2023-03-21T15:01:24.035Z,97829.7805019913
2023-03-21T15:04:17.789Z,97824.71798628465
2023-03-21T15:07:26.296Z,97827.1849819943
2023-03-21T15:11:17.096Z,97822.50249998098
2023-03-21T15:14:20.015Z,97824.91756706036
2023-03-21T15:17:18.350Z,97826.89098506223
2023-03-21T15:21:23.037Z,97828.50272644125
2023-03-21T15:24:21.405Z,97829.30619036312
2023-03-21T15:27:22.838Z,97827.09566993588
2023-03-21T15:31:19.279Z,97821.8206862783
2023-03-21T15:34:20.291Z,97819.9104245083
2023-03-21T15:37:22.547Z,97822.02879386136
2023-03-21T15:41:27.553Z,97827.84446553433
2023-03-21T15:44:21.688Z,97829.28032267091
2023-03-21T15:47:37.878Z,97832.58861691927
2023-03-21T15:51:21.237Z,97830.95930134662
2023-03-21T15:54:22.448Z,97836.21175909055
2023-03-21T15:57:24.244Z,97832.48214099328
2023-03-21T16:01:19.319Z,97841.24157020394
2023-03-21T16:04:19.805Z,97846.1946418805
2023-03-21T16:07:18.574Z,97847.03213285183
2023-03-21T16:11:22.697Z,97853.88420973893
2023-03-21T16:14:19.910Z,97856.46674828461
2023-03-21T16:17:29.901Z,97855.73325036954
2023-03-21T16:21:19.840Z,97858.34405964494
2023-03-21T16:24:17.519Z,97864.20982184034
2023-03-21T16:27:19.350Z,97869.77653668268
2023-03-21T16:31:19.634Z,97876.48580235326
2023-03-21T16:34:17.587Z,97877.07318302062
2023-03-21T16:37:17.628Z,97881.81710458516
2023-03-21T16:41:17.018Z,97885.17474868626
2023-03-21T16:44:17.801Z,97887.4178165498
2023-03-21T16:47:20.490Z,97892.62631794714
2023-03-21T16:51:19.097Z,97899.33323957183
2023-03-21T16:54:17.176Z,97903.50636038028
2023-03-21T16:57:23.887Z,97903.64471267616
2023-03-21T17:01:21.522Z,97901.06288784124
2023-03-21T17:04:18.426Z,97902.865569456
2023-03-21T17:07:18.735Z,97900.61386197714
2023-03-21T17:11:19.702Z,97895.54848681836
2023-03-21T17:14:18.955Z,97893.53312185843
2023-03-21T17:17:17.547Z,97897.16843067257
2023-03-21T17:21:20.516Z,97895.76468199819
2023-03-21T17:24:17.456Z,97891.750417373
2023-03-21T17:27:21.246Z,97891.25214976945
2023-03-21T17:31:22.165Z,97892.2229945477
2023-03-21T17:34:18.564Z,97892.90761802989
2023-03-21T17:37:20.674Z,97885.88525633597
2023-03-21T17:41:21.477Z,97897.19484129238
2023-03-21T17:44:18.370Z,97898.26768372743
2023-03-21T17:47:20.915Z,97897.02976744654
2023-03-21T17:51:17.711Z,97897.8039087637
2023-03-21T17:54:17.618Z,97901.03289926682
2023-03-21T17:57:19.383Z,97899.77565467825
2023-03-21T18:01:22.021Z,97907.85020011984
2023-03-21T18:04:20.935Z,97913.3912989281
2023-03-21T18:07:29.647Z,97917.33213691157
2023-03-21T18:11:21.022Z,97917.45363948037
2023-03-21T18:14:21.505Z,97918.1624054018
2023-03-21T18:17:21.450Z,97919.9124286185
2023-03-21T18:21:20.256Z,97925.45098734433
2023-03-21T18:24:18.757Z,97929.07706675063
2023-03-21T18:27:17.788Z,97937.72020449485
2023-03-21T18:31:21.967Z,97942.7856737483
2023-03-21T18:34:20.186Z,97948.99349067174
2023-03-21T18:37:20.816Z,97949.83970441918
2023-03-21T18:41:20.875Z,97945.92080532336
2023-03-21T18:44:24.292Z,97944.66859750357
2023-03-21T18:47:19.732Z,97953.63870870967
2023-03-21T19:01:16.454Z,97961.09627462656
2023-03-21T19:04:23.750Z,97966.35419344412
2023-03-21T19:07:16.716Z,97975.36742696802
2023-03-21T19:11:21.523Z,97977.84527473996
2023-03-21T19:14:17.394Z,97977.29493067195
2023-03-21T19:18:15.305Z,97990.0358479761
2023-03-21T19:21:17.395Z,97998.04494478194
2023-03-21T19:24:27.122Z,98000.44105486745
2023-03-21T19:27:16.423Z,98007.20193283627
2023-03-21T19:31:16.726Z,98013.23187280963
2023-03-21T19:34:16.750Z,98018.46706989784
2023-03-21T19:37:16.154Z,98017.49660931808
2023-03-21T19:41:16.590Z,98013.91167287806
2023-03-21T19:44:16.429Z,98009.6120071696
2023-03-21T19:47:16.393Z,98012.274587112
2023-03-21T19:51:28.605Z,98011.53211783616
2023-03-21T19:54:17.945Z,98017.13616698176
2023-03-21T19:57:16.856Z,98015.23923623198
2023-03-21T20:01:16.425Z,98020.84101825338
2023-03-21T20:04:17.966Z,98019.99902494343
2023-03-21T20:07:16.311Z,98020.55123137948
2023-03-21T20:11:17.765Z,98018.0476424729
2023-03-21T20:14:16.775Z,98021.7212971098
2023-03-21T20:17:16.668Z,98029.99625253023
2023-03-21T20:21:18.488Z,98023.51115774027
2023-03-21T20:24:17.011Z,98023.74366916817
2023-03-21T20:27:24.355Z,98029.50158113356
2023-03-21T20:31:17.981Z,98028.68399276161
2023-03-21T20:34:16.831Z,98030.18527779168
2023-03-21T20:37:16.725Z,98034.037219602
2023-03-21T20:41:16.870Z,98036.14387904057
2023-03-21T20:44:48.140Z,98035.79018098806
2023-03-21T20:47:16.111Z,98041.59120761302
2023-03-21T20:52:36.852Z,98041.9803898394
2023-03-21T20:54:18.530Z,98041.23850718769
2023-03-21T20:57:19.511Z,98040.26474344022
2023-03-21T21:01:18.842Z,98042.45035848222
2023-03-21T21:04:20.579Z,98041.99976918692
2023-03-21T21:07:19.442Z,98035.21223634356
2023-03-21T21:12:02.938Z,98037.44013720278
2023-03-21T21:14:16.642Z,98042.60686108188
2023-03-21T21:17:46.529Z,98045.38110887646
2023-03-21T21:21:17.371Z,98040.10441400611
2023-03-21T21:24:17.023Z,98040.42091531446
2023-03-21T21:27:16.843Z,98042.57619984263
2023-03-21T21:31:19.283Z,98045.17934001666
2023-03-21T21:34:18.378Z,98047.69175676435
2023-03-21T21:37:16.397Z,98049.68003826695
2023-03-21T21:41:19.165Z,98051.10696956447
2023-03-21T21:44:16.362Z,98052.60945425085
2023-03-21T21:47:16.518Z,98052.82032978302
2023-03-21T21:51:26.098Z,98052.18189837597
2023-03-21T21:54:18.403Z,98053.88540462853
2023-03-21T21:57:19.132Z,98048.85548393668
2023-03-21T22:01:17.685Z,98044.17133543969
2023-03-21T22:04:18.320Z,98049.01025514155
2023-03-21T22:07:17.097Z,98049.44207089425
2023-03-21T22:11:17.975Z,98043.9448367042
2023-03-21T22:14:16.809Z,98047.30410267098
2023-03-21T22:17:17.144Z,98045.96722737123
2023-03-21T22:21:16.549Z,98051.24344208723
2023-03-21T22:24:17.146Z,98057.33158718386
2023-03-21T22:27:17.222Z,98062.6357698889
2023-03-21T22:31:17.017Z,98059.67164820665
2023-03-21T22:34:16.912Z,98059.77413206201
2023-03-21T22:37:17.021Z,98053.74212796439
2023-03-21T22:41:15.892Z,98052.28042297934
2023-03-21T22:44:16.670Z,98054.78073691246
2023-03-21T22:47:16.360Z,98058.12218032691
2023-03-21T22:51:16.652Z,98059.38091850014
2023-03-21T22:54:16.891Z,98058.23069746475
2023-03-21T22:57:17.515Z,98057.45830716204
2023-03-21T23:01:17.207Z,98057.11806720086
2023-03-21T23:04:17.589Z,98055.41551092993
2023-03-21T23:07:17.402Z,98049.67036677018
2023-03-21T23:11:16.178Z,98045.55100567076
2023-03-21T23:14:17.275Z,98048.51447402097
2023-03-21T23:17:16.573Z,98049.2731902708
2023-03-21T23:21:16.669Z,98041.71599966912
2023-03-21T23:24:16.183Z,98050.9734275186
2023-03-21T23:27:18.263Z,98048.38689829374
2023-03-21T23:31:19.102Z,98053.17127315956
2023-03-21T23:34:16.989Z,98053.82391233898
2023-03-21T23:37:16.868Z,98058.40079183276
2023-03-21T23:41:18.882Z,98063.01738823022
2023-03-21T23:44:16.691Z,98062.9328533936
2023-03-21T23:47:16.727Z,98058.86128278161
2023-03-21T23:51:17.348Z,98058.33597550291
2023-03-21T23:54:16.298Z,98059.9892683201
2023-03-21T23:57:17.265Z,98060.05007407635
